sensor_id;sensor_type;location;lat;lon;timestamp;P1;durP1;ratioP1;P2;durP2;ratioP2
74749;SDS011;63269;53.330;-6.288;2022-12-07T00:01:24;7.90;;;4.22;;
74749;SDS011;63269;53.330;-6.288;2022-12-07T00:03:51;6.60;;;4.13;;
74749;SDS011;63269;53.330;-6.288;2022-12-07T00:06:19;7.10;;;3.72;;
74749;SDS011;63269;53.330;-6.288;2022-12-07T00:08:45;9.35;;;5.18;;
74749;SDS011;63269;53.330;-6.288;2022-12-07T00:11:12;9.38;;;4.13;;
74749;SDS011;63269;53.330;-6.288;2022-12-07T00:13:40;7.93;;;4.35;;
74749;SDS011;63269;53.330;-6.288;2022-12-07T00:16:06;7.07;;;4.00;;
74749;SDS011;63269;53.330;-6.288;2022-12-07T00:18:38;5.30;;;4.20;;
74749;SDS011;63269;53.330;-6.288;2022-12-07T00:21:04;7.63;;;3.95;;
74749;SDS011;63269;53.330;-6.288;2022-12-07T00:23:31;7.10;;;4.20;;
74749;SDS011;63269;53.330;-6.288;2022-12-07T00:26:02;7.97;;;3.97;;
74749;SDS011;63269;53.330;-6.288;2022-12-07T00:28:29;5.85;;;4.05;;
74749;SDS011;63269;53.330;-6.288;2022-12-07T00:30:59;9.00;;;4.88;;
74749;SDS011;63269;53.330;-6.288;2022-12-07T00:33:26;7.85;;;4.32;;
74749;SDS011;63269;53.330;-6.288;2022-12-07T00:35:57;8.48;;;4.32;;
74749;SDS011;63269;53.330;-6.288;2022-12-07T00:38:23;7.40;;;4.68;;
74749;SDS011;63269;53.330;-6.288;2022-12-07T00:40:59;8.82;;;4.28;;
74749;SDS011;63269;53.330;-6.288;2022-12-07T00:43:29;6.05;;;4.15;;
74749;SDS011;63269;53.330;-6.288;2022-12-07T00:45:54;6.97;;;4.50;;
74749;SDS011;63269;53.330;-6.288;2022-12-07T00:48:20;7.20;;;4.80;;
74749;SDS011;63269;53.330;-6.288;2022-12-07T00:50:46;8.45;;;5.13;;
74749;SDS011;63269;53.330;-6.288;2022-12-07T00:53:12;7.63;;;4.72;;
74749;SDS011;63269;53.330;-6.288;2022-12-07T00:55:37;7.05;;;4.10;;
74749;SDS011;63269;53.330;-6.288;2022-12-07T00:58:03;8.85;;;4.28;;
74749;SDS011;63269;53.330;-6.288;2022-12-07T01:00:29;9.48;;;5.28;;
74749;SDS011;63269;53.330;-6.288;2022-12-07T01:02:54;12.13;;;5.10;;
74749;SDS011;63269;53.330;-6.288;2022-12-07T01:05:20;7.43;;;4.85;;
74749;SDS011;63269;53.330;-6.288;2022-12-07T01:07:45;6.50;;;4.60;;
74749;SDS011;63269;53.330;-6.288;2022-12-07T01:10:12;7.25;;;4.28;;
74749;SDS011;63269;53.330;-6.288;2022-12-07T01:12:38;7.80;;;4.85;;
74749;SDS011;63269;53.330;-6.288;2022-12-07T01:15:04;6.60;;;4.47;;
74749;SDS011;63269;53.330;-6.288;2022-12-07T01:17:29;8.70;;;4.90;;
74749;SDS011;63269;53.330;-6.288;2022-12-07T01:19:55;6.90;;;4.45;;
74749;SDS011;63269;53.330;-6.288;2022-12-07T01:22:20;8.23;;;4.47;;
74749;SDS011;63269;53.330;-6.288;2022-12-07T01:24:46;8.25;;;4.38;;
74749;SDS011;63269;53.330;-6.288;2022-12-07T01:27:12;11.73;;;5.45;;
74749;SDS011;63269;53.330;-6.288;2022-12-07T01:29:38;8.73;;;5.40;;
74749;SDS011;63269;53.330;-6.288;2022-12-07T01:32:03;8.25;;;5.75;;
74749;SDS011;63269;53.330;-6.288;2022-12-07T01:34:29;8.48;;;5.05;;
74749;SDS011;63269;53.330;-6.288;2022-12-07T01:36:54;8.30;;;5.10;;
74749;SDS011;63269;53.330;-6.288;2022-12-07T01:39:20;8.80;;;5.20;;
74749;SDS011;63269;53.330;-6.288;2022-12-07T01:41:45;7.68;;;5.45;;
74749;SDS011;63269;53.330;-6.288;2022-12-07T01:44:12;8.35;;;5.68;;
74749;SDS011;63269;53.330;-6.288;2022-12-07T01:46:42;9.60;;;5.35;;
74749;SDS011;63269;53.330;-6.288;2022-12-07T01:49:10;8.02;;;4.93;;
74749;SDS011;63269;53.330;-6.288;2022-12-07T01:51:41;10.13;;;5.90;;
74749;SDS011;63269;53.330;-6.288;2022-12-07T01:54:08;7.90;;;5.05;;
74749;SDS011;63269;53.330;-6.288;2022-12-07T01:56:36;9.63;;;5.00;;
74749;SDS011;63269;53.330;-6.288;2022-12-07T01:59:03;9.57;;;5.00;;
74749;SDS011;63269;53.330;-6.288;2022-12-07T02:01:28;7.75;;;5.03;;
74749;SDS011;63269;53.330;-6.288;2022-12-07T02:03:54;8.57;;;4.55;;
74749;SDS011;63269;53.330;-6.288;2022-12-07T02:06:20;8.75;;;4.50;;
74749;SDS011;63269;53.330;-6.288;2022-12-07T02:08:49;9.82;;;4.72;;
74749;SDS011;63269;53.330;-6.288;2022-12-07T02:11:14;7.30;;;4.20;;
74749;SDS011;63269;53.330;-6.288;2022-12-07T02:13:41;7.13;;;4.35;;
74749;SDS011;63269;53.330;-6.288;2022-12-07T02:18:53;7.75;;;4.10;;
74749;SDS011;63269;53.330;-6.288;2022-12-07T02:21:23;6.82;;;4.13;;
74749;SDS011;63269;53.330;-6.288;2022-12-07T02:24:04;8.60;;;3.83;;
74749;SDS011;63269;53.330;-6.288;2022-12-07T02:26:41;6.05;;;3.60;;
74749;SDS011;63269;53.330;-6.288;2022-12-07T02:29:10;5.07;;;3.38;;
74749;SDS011;63269;53.330;-6.288;2022-12-07T02:31:53;9.48;;;4.57;;
74749;SDS011;63269;53.330;-6.288;2022-12-07T02:40:01;6.47;;;3.85;;
74749;SDS011;63269;53.330;-6.288;2022-12-07T02:42:32;5.43;;;3.28;;
74749;SDS011;63269;53.330;-6.288;2022-12-07T02:45:02;6.43;;;3.78;;
74749;SDS011;63269;53.330;-6.288;2022-12-07T02:47:30;4.93;;;3.13;;
74749;SDS011;63269;53.330;-6.288;2022-12-07T02:49:58;5.95;;;3.30;;
74749;SDS011;63269;53.330;-6.288;2022-12-07T02:52:23;5.28;;;3.35;;
74749;SDS011;63269;53.330;-6.288;2022-12-07T02:54:49;5.10;;;3.28;;
74749;SDS011;63269;53.330;-6.288;2022-12-07T02:57:18;6.35;;;3.35;;
74749;SDS011;63269;53.330;-6.288;2022-12-07T03:02:39;4.18;;;3.05;;
74749;SDS011;63269;53.330;-6.288;2022-12-07T03:05:19;6.53;;;2.90;;
74749;SDS011;63269;53.330;-6.288;2022-12-07T03:13:25;5.45;;;2.90;;
74749;SDS011;63269;53.330;-6.288;2022-12-07T03:18:49;5.40;;;3.00;;
74749;SDS011;63269;53.330;-6.288;2022-12-07T03:21:21;4.65;;;2.75;;
74749;SDS011;63269;53.330;-6.288;2022-12-07T03:23:51;5.35;;;2.90;;
74749;SDS011;63269;53.330;-6.288;2022-12-07T03:26:21;5.30;;;2.85;;
74749;SDS011;63269;53.330;-6.288;2022-12-07T03:28:50;4.90;;;2.65;;
74749;SDS011;63269;53.330;-6.288;2022-12-07T03:31:39;4.30;;;3.00;;
74749;SDS011;63269;53.330;-6.288;2022-12-07T03:39:58;3.90;;;2.70;;
74749;SDS011;63269;53.330;-6.288;2022-12-07T03:42:27;4.93;;;3.40;;
74749;SDS011;63269;53.330;-6.288;2022-12-07T03:44:52;5.15;;;2.97;;
74749;SDS011;63269;53.330;-6.288;2022-12-07T03:47:29;4.32;;;2.60;;
74749;SDS011;63269;53.330;-6.288;2022-12-07T03:50:04;5.78;;;2.80;;
74749;SDS011;63269;53.330;-6.288;2022-12-07T03:55:39;4.28;;;2.88;;
74749;SDS011;63269;53.330;-6.288;2022-12-07T03:58:09;5.20;;;3.08;;
74749;SDS011;63269;53.330;-6.288;2022-12-07T04:00:37;4.97;;;2.63;;
74749;SDS011;63269;53.330;-6.288;2022-12-07T04:03:05;4.90;;;2.97;;
74749;SDS011;63269;53.330;-6.288;2022-12-07T04:05:30;4.22;;;2.47;;
74749;SDS011;63269;53.330;-6.288;2022-12-07T04:07:56;5.40;;;2.90;;
74749;SDS011;63269;53.330;-6.288;2022-12-07T04:10:21;4.03;;;2.65;;
74749;SDS011;63269;53.330;-6.288;2022-12-07T04:12:46;5.90;;;2.67;;
74749;SDS011;63269;53.330;-6.288;2022-12-07T04:15:12;5.15;;;2.78;;
74749;SDS011;63269;53.330;-6.288;2022-12-07T04:17:37;4.35;;;2.53;;
74749;SDS011;63269;53.330;-6.288;2022-12-07T04:20:03;5.05;;;3.05;;
74749;SDS011;63269;53.330;-6.288;2022-12-07T04:22:30;5.43;;;2.90;;
74749;SDS011;63269;53.330;-6.288;2022-12-07T04:24:55;3.97;;;2.42;;
74749;SDS011;63269;53.330;-6.288;2022-12-07T04:27:21;5.13;;;3.05;;
74749;SDS011;63269;53.330;-6.288;2022-12-07T04:29:46;6.53;;;3.00;;
74749;SDS011;63269;53.330;-6.288;2022-12-07T04:32:11;6.75;;;3.30;;
74749;SDS011;63269;53.330;-6.288;2022-12-07T04:34:37;4.90;;;2.92;;
74749;SDS011;63269;53.330;-6.288;2022-12-07T04:37:03;4.68;;;2.92;;
74749;SDS011;63269;53.330;-6.288;2022-12-07T04:39:30;4.57;;;3.15;;
74749;SDS011;63269;53.330;-6.288;2022-12-07T04:41:56;4.47;;;3.53;;
74749;SDS011;63269;53.330;-6.288;2022-12-07T04:44:23;4.88;;;2.80;;
74749;SDS011;63269;53.330;-6.288;2022-12-07T04:46:50;5.45;;;3.33;;
74749;SDS011;63269;53.330;-6.288;2022-12-07T04:49:16;4.22;;;3.28;;
74749;SDS011;63269;53.330;-6.288;2022-12-07T04:51:42;4.53;;;2.63;;
74749;SDS011;63269;53.330;-6.288;2022-12-07T04:54:08;6.43;;;2.90;;
74749;SDS011;63269;53.330;-6.288;2022-12-07T04:56:34;5.15;;;3.15;;
74749;SDS011;63269;53.330;-6.288;2022-12-07T04:59:00;5.68;;;3.00;;
74749;SDS011;63269;53.330;-6.288;2022-12-07T05:01:26;5.93;;;3.13;;
74749;SDS011;63269;53.330;-6.288;2022-12-07T05:03:52;5.03;;;2.80;;
74749;SDS011;63269;53.330;-6.288;2022-12-07T05:06:17;5.07;;;2.90;;
74749;SDS011;63269;53.330;-6.288;2022-12-07T05:08:43;6.40;;;2.90;;
74749;SDS011;63269;53.330;-6.288;2022-12-07T05:11:09;5.10;;;2.92;;
74749;SDS011;63269;53.330;-6.288;2022-12-07T05:13:54;5.05;;;2.40;;
74749;SDS011;63269;53.330;-6.288;2022-12-07T05:16:19;3.72;;;2.35;;
74749;SDS011;63269;53.330;-6.288;2022-12-07T05:18:45;4.25;;;3.10;;
74749;SDS011;63269;53.330;-6.288;2022-12-07T05:21:10;5.40;;;3.63;;
74749;SDS011;63269;53.330;-6.288;2022-12-07T05:23:35;6.30;;;3.03;;
74749;SDS011;63269;53.330;-6.288;2022-12-07T05:26:01;4.35;;;2.90;;
74749;SDS011;63269;53.330;-6.288;2022-12-07T05:28:26;4.13;;;2.63;;
74749;SDS011;63269;53.330;-6.288;2022-12-07T05:30:51;4.80;;;2.67;;
74749;SDS011;63269;53.330;-6.288;2022-12-07T05:33:17;5.80;;;2.75;;
74749;SDS011;63269;53.330;-6.288;2022-12-07T05:35:42;4.90;;;2.92;;
74749;SDS011;63269;53.330;-6.288;2022-12-07T05:38:08;4.75;;;2.47;;
74749;SDS011;63269;53.330;-6.288;2022-12-07T05:40:33;4.90;;;2.85;;
74749;SDS011;63269;53.330;-6.288;2022-12-07T05:42:58;4.45;;;2.53;;
74749;SDS011;63269;53.330;-6.288;2022-12-07T05:45:24;5.50;;;3.38;;
74749;SDS011;63269;53.330;-6.288;2022-12-07T05:47:49;4.25;;;2.70;;
74749;SDS011;63269;53.330;-6.288;2022-12-07T05:50:15;5.55;;;2.88;;
74749;SDS011;63269;53.330;-6.288;2022-12-07T05:52:40;5.90;;;2.47;;
74749;SDS011;63269;53.330;-6.288;2022-12-07T05:55:05;4.35;;;2.42;;
74749;SDS011;63269;53.330;-6.288;2022-12-07T05:57:32;5.28;;;2.55;;
74749;SDS011;63269;53.330;-6.288;2022-12-07T05:59:57;3.35;;;2.30;;
74749;SDS011;63269;53.330;-6.288;2022-12-07T06:02:22;5.72;;;3.10;;
74749;SDS011;63269;53.330;-6.288;2022-12-07T06:04:48;4.25;;;2.60;;
74749;SDS011;63269;53.330;-6.288;2022-12-07T06:07:14;4.60;;;2.40;;
74749;SDS011;63269;53.330;-6.288;2022-12-07T06:09:40;5.20;;;2.53;;
74749;SDS011;63269;53.330;-6.288;2022-12-07T06:12:06;5.25;;;2.60;;
74749;SDS011;63269;53.330;-6.288;2022-12-07T06:14:52;4.72;;;2.80;;
74749;SDS011;63269;53.330;-6.288;2022-12-07T06:17:18;3.65;;;2.20;;
74749;SDS011;63269;53.330;-6.288;2022-12-07T06:19:43;3.95;;;2.25;;
74749;SDS011;63269;53.330;-6.288;2022-12-07T06:22:09;4.50;;;2.60;;
74749;SDS011;63269;53.330;-6.288;2022-12-07T06:24:36;4.10;;;2.90;;
74749;SDS011;63269;53.330;-6.288;2022-12-07T06:27:02;5.35;;;2.80;;
74749;SDS011;63269;53.330;-6.288;2022-12-07T06:29:29;3.92;;;2.42;;
74749;SDS011;63269;53.330;-6.288;2022-12-07T06:31:55;5.10;;;2.65;;
74749;SDS011;63269;53.330;-6.288;2022-12-07T06:34:21;4.50;;;2.20;;
74749;SDS011;63269;53.330;-6.288;2022-12-07T06:36:48;5.75;;;2.88;;
74749;SDS011;63269;53.330;-6.288;2022-12-07T06:39:17;4.22;;;2.58;;
74749;SDS011;63269;53.330;-6.288;2022-12-07T06:41:43;4.50;;;2.53;;
74749;SDS011;63269;53.330;-6.288;2022-12-07T06:44:09;3.80;;;2.97;;
74749;SDS011;63269;53.330;-6.288;2022-12-07T06:46:37;4.80;;;2.38;;
74749;SDS011;63269;53.330;-6.288;2022-12-07T06:49:03;4.80;;;2.33;;
74749;SDS011;63269;53.330;-6.288;2022-12-07T06:51:29;3.58;;;2.20;;
74749;SDS011;63269;53.330;-6.288;2022-12-07T06:53:55;5.72;;;3.20;;
74749;SDS011;63269;53.330;-6.288;2022-12-07T06:56:21;3.97;;;2.30;;
74749;SDS011;63269;53.330;-6.288;2022-12-07T06:58:47;6.00;;;2.75;;
74749;SDS011;63269;53.330;-6.288;2022-12-07T07:01:13;3.67;;;2.85;;
74749;SDS011;63269;53.330;-6.288;2022-12-07T07:03:40;3.70;;;2.15;;
74749;SDS011;63269;53.330;-6.288;2022-12-07T07:06:06;4.13;;;2.50;;
74749;SDS011;63269;53.330;-6.288;2022-12-07T07:08:32;4.63;;;2.30;;
74749;SDS011;63269;53.330;-6.288;2022-12-07T07:10:58;5.50;;;2.53;;
74749;SDS011;63269;53.330;-6.288;2022-12-07T07:13:24;4.55;;;2.50;;
74749;SDS011;63269;53.330;-6.288;2022-12-07T07:15:49;4.47;;;2.30;;
74749;SDS011;63269;53.330;-6.288;2022-12-07T07:18:15;4.90;;;2.72;;
74749;SDS011;63269;53.330;-6.288;2022-12-07T07:20:40;4.32;;;2.58;;
74749;SDS011;63269;53.330;-6.288;2022-12-07T07:23:06;5.53;;;2.22;;
74749;SDS011;63269;53.330;-6.288;2022-12-07T07:25:32;5.10;;;2.45;;
74749;SDS011;63269;53.330;-6.288;2022-12-07T07:27:58;5.47;;;2.92;;
74749;SDS011;63269;53.330;-6.288;2022-12-07T07:30:24;5.50;;;2.50;;
74749;SDS011;63269;53.330;-6.288;2022-12-07T07:32:49;4.60;;;2.70;;
74749;SDS011;63269;53.330;-6.288;2022-12-07T07:35:15;4.35;;;2.05;;
74749;SDS011;63269;53.330;-6.288;2022-12-07T07:37:41;3.75;;;2.38;;
74749;SDS011;63269;53.330;-6.288;2022-12-07T07:40:07;5.03;;;2.60;;
74749;SDS011;63269;53.330;-6.288;2022-12-07T07:42:33;4.35;;;2.10;;
74749;SDS011;63269;53.330;-6.288;2022-12-07T07:44:58;3.85;;;2.45;;
74749;SDS011;63269;53.330;-6.288;2022-12-07T07:47:24;4.32;;;2.60;;
74749;SDS011;63269;53.330;-6.288;2022-12-07T07:49:49;5.18;;;2.75;;
74749;SDS011;63269;53.330;-6.288;2022-12-07T07:52:14;4.70;;;2.88;;
74749;SDS011;63269;53.330;-6.288;2022-12-07T07:54:40;5.05;;;2.50;;
74749;SDS011;63269;53.330;-6.288;2022-12-07T07:57:05;4.82;;;2.47;;
74749;SDS011;63269;53.330;-6.288;2022-12-07T07:59:31;4.40;;;2.67;;
74749;SDS011;63269;53.330;-6.288;2022-12-07T08:01:56;3.95;;;2.45;;
74749;SDS011;63269;53.330;-6.288;2022-12-07T08:04:21;7.88;;;2.30;;
74749;SDS011;63269;53.330;-6.288;2022-12-07T08:06:47;4.75;;;2.33;;
74749;SDS011;63269;53.330;-6.288;2022-12-07T08:09:12;5.00;;;2.80;;
74749;SDS011;63269;53.330;-6.288;2022-12-07T08:11:38;4.43;;;2.40;;
74749;SDS011;63269;53.330;-6.288;2022-12-07T08:14:03;5.50;;;2.58;;
74749;SDS011;63269;53.330;-6.288;2022-12-07T08:16:28;5.93;;;2.80;;
74749;SDS011;63269;53.330;-6.288;2022-12-07T08:18:54;4.80;;;2.60;;
74749;SDS011;63269;53.330;-6.288;2022-12-07T08:21:20;4.93;;;2.65;;
74749;SDS011;63269;53.330;-6.288;2022-12-07T08:23:45;5.15;;;2.80;;
74749;SDS011;63269;53.330;-6.288;2022-12-07T08:26:12;3.75;;;2.38;;
74749;SDS011;63269;53.330;-6.288;2022-12-07T08:28:40;3.70;;;2.03;;
74749;SDS011;63269;53.330;-6.288;2022-12-07T08:31:07;5.72;;;2.45;;
74749;SDS011;63269;53.330;-6.288;2022-12-07T08:33:35;5.23;;;2.13;;
74749;SDS011;63269;53.330;-6.288;2022-12-07T08:36:05;4.95;;;2.65;;
74749;SDS011;63269;53.330;-6.288;2022-12-07T08:38:36;4.13;;;2.22;;
74749;SDS011;63269;53.330;-6.288;2022-12-07T08:41:02;4.25;;;2.10;;
74749;SDS011;63269;53.330;-6.288;2022-12-07T08:43:28;12.82;;;2.85;;
74749;SDS011;63269;53.330;-6.288;2022-12-07T08:48:32;5.22;;;2.72;;
74749;SDS011;63269;53.330;-6.288;2022-12-07T08:51:00;3.10;;;2.20;;
74749;SDS011;63269;53.330;-6.288;2022-12-07T08:53:26;5.15;;;2.03;;
74749;SDS011;63269;53.330;-6.288;2022-12-07T08:55:53;3.80;;;2.20;;
74749;SDS011;63269;53.330;-6.288;2022-12-07T08:58:18;6.13;;;2.67;;
74749;SDS011;63269;53.330;-6.288;2022-12-07T09:00:43;5.28;;;2.35;;
74749;SDS011;63269;53.330;-6.288;2022-12-07T09:03:09;3.53;;;2.08;;
74749;SDS011;63269;53.330;-6.288;2022-12-07T09:05:34;4.13;;;2.55;;
74749;SDS011;63269;53.330;-6.288;2022-12-07T09:08:00;6.35;;;2.35;;
74749;SDS011;63269;53.330;-6.288;2022-12-07T09:10:27;4.88;;;2.72;;
74749;SDS011;63269;53.330;-6.288;2022-12-07T09:12:53;3.83;;;2.38;;
74749;SDS011;63269;53.330;-6.288;2022-12-07T09:15:19;4.82;;;2.20;;
74749;SDS011;63269;53.330;-6.288;2022-12-07T09:17:44;5.38;;;2.38;;
74749;SDS011;63269;53.330;-6.288;2022-12-07T09:20:10;6.60;;;2.85;;
74749;SDS011;63269;53.330;-6.288;2022-12-07T09:22:35;4.43;;;2.17;;
74749;SDS011;63269;53.330;-6.288;2022-12-07T09:25:01;7.15;;;2.35;;
74749;SDS011;63269;53.330;-6.288;2022-12-07T09:27:27;3.65;;;2.20;;
74749;SDS011;63269;53.330;-6.288;2022-12-07T09:29:52;4.43;;;2.17;;
74749;SDS011;63269;53.330;-6.288;2022-12-07T09:32:18;8.93;;;2.83;;
74749;SDS011;63269;53.330;-6.288;2022-12-07T09:34:43;7.22;;;2.55;;
74749;SDS011;63269;53.330;-6.288;2022-12-07T09:37:09;9.60;;;3.15;;
74749;SDS011;63269;53.330;-6.288;2022-12-07T09:39:37;13.60;;;3.70;;
74749;SDS011;63269;53.330;-6.288;2022-12-07T09:42:03;21.45;;;4.70;;
74749;SDS011;63269;53.330;-6.288;2022-12-07T09:44:30;40.05;;;7.15;;
74749;SDS011;63269;53.330;-6.288;2022-12-07T09:46:55;43.50;;;7.80;;
74749;SDS011;63269;53.330;-6.288;2022-12-07T09:49:22;43.85;;;8.35;;
74749;SDS011;63269;53.330;-6.288;2022-12-07T09:52:03;48.85;;;9.63;;
74749;SDS011;63269;53.330;-6.288;2022-12-07T09:54:45;49.55;;;10.10;;
74749;SDS011;63269;53.330;-6.288;2022-12-07T09:57:13;50.53;;;8.68;;
74749;SDS011;63269;53.330;-6.288;2022-12-07T09:59:39;41.60;;;10.48;;
74749;SDS011;63269;53.330;-6.288;2022-12-07T10:02:26;37.70;;;9.82;;
74749;SDS011;63269;53.330;-6.288;2022-12-07T10:05:06;31.50;;;7.13;;
74749;SDS011;63269;53.330;-6.288;2022-12-07T10:07:35;32.90;;;7.88;;
74749;SDS011;63269;53.330;-6.288;2022-12-07T10:10:05;30.23;;;8.15;;
74749;SDS011;63269;53.330;-6.288;2022-12-07T10:12:54;31.23;;;7.53;;
74749;SDS011;63269;53.330;-6.288;2022-12-07T10:15:20;24.27;;;6.43;;
74749;SDS011;63269;53.330;-6.288;2022-12-07T10:17:50;19.70;;;6.53;;
74749;SDS011;63269;53.330;-6.288;2022-12-07T10:20:23;28.30;;;6.32;;
74749;SDS011;63269;53.330;-6.288;2022-12-07T10:25:42;20.80;;;6.55;;
74749;SDS011;63269;53.330;-6.288;2022-12-07T10:33:57;19.33;;;5.30;;
74749;SDS011;63269;53.330;-6.288;2022-12-07T10:36:20;15.80;;;4.97;;
74749;SDS011;63269;53.330;-6.288;2022-12-07T10:41:23;22.15;;;6.28;;
74749;SDS011;63269;53.330;-6.288;2022-12-07T10:43:53;18.40;;;4.07;;
74749;SDS011;63269;53.330;-6.288;2022-12-07T10:46:30;13.93;;;4.07;;
74749;SDS011;63269;53.330;-6.288;2022-12-07T11:02:46;16.00;;;5.30;;
74749;SDS011;63269;53.330;-6.288;2022-12-07T11:05:41;17.90;;;4.75;;
74749;SDS011;63269;53.330;-6.288;2022-12-07T11:11:16;19.83;;;5.25;;
74749;SDS011;63269;53.330;-6.288;2022-12-07T11:27:28;29.67;;;6.25;;
74749;SDS011;63269;53.330;-6.288;2022-12-07T11:38:53;42.15;;;9.02;;
74749;SDS011;63269;53.330;-6.288;2022-12-07T11:41:23;35.92;;;9.07;;
74749;SDS011;63269;53.330;-6.288;2022-12-07T11:44:08;29.25;;;6.75;;
74749;SDS011;63269;53.330;-6.288;2022-12-07T11:46:57;36.67;;;7.88;;
74749;SDS011;63269;53.330;-6.288;2022-12-07T11:55:15;24.08;;;6.50;;
74749;SDS011;63269;53.330;-6.288;2022-12-07T11:57:47;23.80;;;5.80;;
74749;SDS011;63269;53.330;-6.288;2022-12-07T12:00:17;21.40;;;6.07;;
74749;SDS011;63269;53.330;-6.288;2022-12-07T12:02:54;19.67;;;5.72;;
74749;SDS011;63269;53.330;-6.288;2022-12-07T12:05:25;19.27;;;6.30;;
74749;SDS011;63269;53.330;-6.288;2022-12-07T12:07:54;23.25;;;5.20;;
74749;SDS011;63269;53.330;-6.288;2022-12-07T12:10:50;17.17;;;6.15;;
74749;SDS011;63269;53.330;-6.288;2022-12-07T12:21:36;13.73;;;4.50;;
74749;SDS011;63269;53.330;-6.288;2022-12-07T12:24:05;18.17;;;5.10;;
74749;SDS011;63269;53.330;-6.288;2022-12-07T12:26:37;14.85;;;4.57;;
74749;SDS011;63269;53.330;-6.288;2022-12-07T12:29:13;14.68;;;3.85;;
74749;SDS011;63269;53.330;-6.288;2022-12-07T12:32:15;14.38;;;4.68;;
74749;SDS011;63269;53.330;-6.288;2022-12-07T12:37:45;12.27;;;3.70;;
74749;SDS011;63269;53.330;-6.288;2022-12-07T12:42:49;16.15;;;5.03;;
74749;SDS011;63269;53.330;-6.288;2022-12-07T12:45:18;13.38;;;4.43;;
74749;SDS011;63269;53.330;-6.288;2022-12-07T12:47:53;17.48;;;4.15;;
74749;SDS011;63269;53.330;-6.288;2022-12-07T12:50:30;12.02;;;3.78;;
74749;SDS011;63269;53.330;-6.288;2022-12-07T13:00:44;17.13;;;4.20;;
74749;SDS011;63269;53.330;-6.288;2022-12-07T13:03:25;17.17;;;4.53;;
74749;SDS011;63269;53.330;-6.288;2022-12-07T13:08:58;11.93;;;4.13;;
74749;SDS011;63269;53.330;-6.288;2022-12-07T13:11:27;13.52;;;4.47;;
74749;SDS011;63269;53.330;-6.288;2022-12-07T13:17:02;11.02;;;4.75;;
74749;SDS011;63269;53.330;-6.288;2022-12-07T13:22:31;13.63;;;4.38;;
74749;SDS011;63269;53.330;-6.288;2022-12-07T13:24:55;9.80;;;3.35;;
74749;SDS011;63269;53.330;-6.288;2022-12-07T13:27:34;11.18;;;3.80;;
74749;SDS011;63269;53.330;-6.288;2022-12-07T13:30:02;8.20;;;3.58;;
74749;SDS011;63269;53.330;-6.288;2022-12-07T13:32:51;17.50;;;4.28;;
74749;SDS011;63269;53.330;-6.288;2022-12-07T13:40:24;12.23;;;3.22;;
74749;SDS011;63269;53.330;-6.288;2022-12-07T13:42:57;13.05;;;3.47;;
74749;SDS011;63269;53.330;-6.288;2022-12-07T13:45:27;10.85;;;3.30;;
74749;SDS011;63269;53.330;-6.288;2022-12-07T13:48:33;10.35;;;3.30;;
74749;SDS011;63269;53.330;-6.288;2022-12-07T13:51:03;9.70;;;3.70;;
74749;SDS011;63269;53.330;-6.288;2022-12-07T13:53:29;9.02;;;3.67;;
74749;SDS011;63269;53.330;-6.288;2022-12-07T13:55:58;7.97;;;3.15;;
74749;SDS011;63269;53.330;-6.288;2022-12-07T13:58:25;10.18;;;2.75;;
74749;SDS011;63269;53.330;-6.288;2022-12-07T14:00:54;6.93;;;2.75;;
74749;SDS011;63269;53.330;-6.288;2022-12-07T14:03:23;8.90;;;2.65;;
74749;SDS011;63269;53.330;-6.288;2022-12-07T14:06:06;7.30;;;2.35;;
74749;SDS011;63269;53.330;-6.288;2022-12-07T14:11:54;6.25;;;2.78;;
74749;SDS011;63269;53.330;-6.288;2022-12-07T14:14:22;7.78;;;2.13;;
74749;SDS011;63269;53.330;-6.288;2022-12-07T14:16:56;7.20;;;2.03;;
74749;SDS011;63269;53.330;-6.288;2022-12-07T14:22:53;5.47;;;2.05;;
74749;SDS011;63269;53.330;-6.288;2022-12-07T14:27:38;7.82;;;2.35;;
74749;SDS011;63269;53.330;-6.288;2022-12-07T14:30:04;8.25;;;2.33;;
74749;SDS011;63269;53.330;-6.288;2022-12-07T14:32:30;5.40;;;2.25;;
74749;SDS011;63269;53.330;-6.288;2022-12-07T14:35:08;6.00;;;2.65;;
74749;SDS011;63269;53.330;-6.288;2022-12-07T14:37:35;6.65;;;2.05;;
74749;SDS011;63269;53.330;-6.288;2022-12-07T14:40:01;6.78;;;2.22;;
74749;SDS011;63269;53.330;-6.288;2022-12-07T14:42:27;4.18;;;1.75;;
74749;SDS011;63269;53.330;-6.288;2022-12-07T14:44:55;4.57;;;1.98;;
74749;SDS011;63269;53.330;-6.288;2022-12-07T14:47:21;5.72;;;2.53;;
74749;SDS011;63269;53.330;-6.288;2022-12-07T14:49:47;7.60;;;2.22;;
74749;SDS011;63269;53.330;-6.288;2022-12-07T14:52:30;3.92;;;1.83;;
74749;SDS011;63269;53.330;-6.288;2022-12-07T14:54:55;3.55;;;1.58;;
74749;SDS011;63269;53.330;-6.288;2022-12-07T14:57:21;5.05;;;1.70;;
74749;SDS011;63269;53.330;-6.288;2022-12-07T14:59:47;3.67;;;1.73;;
74749;SDS011;63269;53.330;-6.288;2022-12-07T15:02:13;4.47;;;1.42;;
74749;SDS011;63269;53.330;-6.288;2022-12-07T15:04:40;5.45;;;1.45;;
74749;SDS011;63269;53.330;-6.288;2022-12-07T15:07:06;5.28;;;2.03;;
74749;SDS011;63269;53.330;-6.288;2022-12-07T15:09:37;4.45;;;2.00;;
74749;SDS011;63269;53.330;-6.288;2022-12-07T15:12:03;4.07;;;1.50;;
74749;SDS011;63269;53.330;-6.288;2022-12-07T15:14:29;3.72;;;1.40;;
74749;SDS011;63269;53.330;-6.288;2022-12-07T15:16:54;5.22;;;1.40;;
74749;SDS011;63269;53.330;-6.288;2022-12-07T15:19:20;5.13;;;1.70;;
74749;SDS011;63269;53.330;-6.288;2022-12-07T15:21:51;3.80;;;1.63;;
74749;SDS011;63269;53.330;-6.288;2022-12-07T15:24:16;4.78;;;1.63;;
74749;SDS011;63269;53.330;-6.288;2022-12-07T15:26:43;4.07;;;1.50;;
74749;SDS011;63269;53.330;-6.288;2022-12-07T15:29:09;2.88;;;1.40;;
74749;SDS011;63269;53.330;-6.288;2022-12-07T15:31:35;3.80;;;1.70;;
74749;SDS011;63269;53.330;-6.288;2022-12-07T15:34:01;4.38;;;1.48;;
74749;SDS011;63269;53.330;-6.288;2022-12-07T15:36:27;4.30;;;1.60;;
74749;SDS011;63269;53.330;-6.288;2022-12-07T15:38:53;5.07;;;1.45;;
74749;SDS011;63269;53.330;-6.288;2022-12-07T15:41:19;4.75;;;1.92;;
74749;SDS011;63269;53.330;-6.288;2022-12-07T15:43:45;3.33;;;1.75;;
74749;SDS011;63269;53.330;-6.288;2022-12-07T15:46:33;3.08;;;1.63;;
74749;SDS011;63269;53.330;-6.288;2022-12-07T15:49:00;3.15;;;1.35;;
74749;SDS011;63269;53.330;-6.288;2022-12-07T15:51:28;3.80;;;1.60;;
74749;SDS011;63269;53.330;-6.288;2022-12-07T15:53:53;3.60;;;1.77;;
74749;SDS011;63269;53.330;-6.288;2022-12-07T15:56:19;3.85;;;1.40;;
74749;SDS011;63269;53.330;-6.288;2022-12-07T15:58:45;3.90;;;1.98;;
74749;SDS011;63269;53.330;-6.288;2022-12-07T16:01:11;6.13;;;1.58;;
74749;SDS011;63269;53.330;-6.288;2022-12-07T16:03:41;3.78;;;1.75;;
74749;SDS011;63269;53.330;-6.288;2022-12-07T16:06:07;4.03;;;2.00;;
74749;SDS011;63269;53.330;-6.288;2022-12-07T16:08:33;4.00;;;1.67;;
74749;SDS011;63269;53.330;-6.288;2022-12-07T16:10:58;2.88;;;1.10;;
74749;SDS011;63269;53.330;-6.288;2022-12-07T16:13:24;5.07;;;1.85;;
74749;SDS011;63269;53.330;-6.288;2022-12-07T16:15:49;3.47;;;1.90;;
74749;SDS011;63269;53.330;-6.288;2022-12-07T16:18:15;3.55;;;1.80;;
74749;SDS011;63269;53.330;-6.288;2022-12-07T16:20:40;3.25;;;1.60;;
74749;SDS011;63269;53.330;-6.288;2022-12-07T16:23:05;4.65;;;1.83;;
74749;SDS011;63269;53.330;-6.288;2022-12-07T16:25:32;2.88;;;1.50;;
74749;SDS011;63269;53.330;-6.288;2022-12-07T16:27:58;7.85;;;1.63;;
74749;SDS011;63269;53.330;-6.288;2022-12-07T16:30:23;3.28;;;1.73;;
74749;SDS011;63269;53.330;-6.288;2022-12-07T16:32:50;6.47;;;1.50;;
74749;SDS011;63269;53.330;-6.288;2022-12-07T16:35:16;5.57;;;1.95;;
74749;SDS011;63269;53.330;-6.288;2022-12-07T16:37:41;3.95;;;2.00;;
74749;SDS011;63269;53.330;-6.288;2022-12-07T16:40:08;3.30;;;1.90;;
74749;SDS011;63269;53.330;-6.288;2022-12-07T16:42:34;4.72;;;2.45;;
74749;SDS011;63269;53.330;-6.288;2022-12-07T16:45:01;3.88;;;2.28;;
74749;SDS011;63269;53.330;-6.288;2022-12-07T16:47:27;3.70;;;2.30;;
74749;SDS011;63269;53.330;-6.288;2022-12-07T16:49:53;4.07;;;2.35;;